createdAt,value
2019-01-04T00:00:30.794Z,17.78
2019-01-04T00:01:30.723Z,17.77
2019-01-04T00:02:30.674Z,17.77
2019-01-04T00:03:30.696Z,17.76
2019-01-04T00:04:31.018Z,17.76
2019-01-04T00:05:30.473Z,17.75
2019-01-04T00:06:30.474Z,17.75
2019-01-04T00:07:30.905Z,17.76
2019-01-04T00:08:30.299Z,17.76
2019-01-04T00:09:30.251Z,17.75
2019-01-04T00:10:30.291Z,17.75
2019-01-04T00:11:30.384Z,17.74
2019-01-04T00:12:30.386Z,17.73
2019-01-04T00:13:30.351Z,17.73
2019-01-04T00:14:30.368Z,17.72
2019-01-04T00:15:30.560Z,17.73
2019-01-04T00:16:30.429Z,17.72
2019-01-04T00:17:30.126Z,17.72
2019-01-04T00:18:30.324Z,17.71
2019-01-04T00:19:30.584Z,17.71
2019-01-04T00:20:30.715Z,17.7
2019-01-04T00:21:30.780Z,17.71
2019-01-04T00:22:30.386Z,17.69
2019-01-04T00:23:30.703Z,17.67
2019-01-04T00:24:30.171Z,17.67
2019-01-04T00:25:30.503Z,17.67
2019-01-04T00:26:30.585Z,17.67
2019-01-04T00:27:30.248Z,17.67
2019-01-04T00:28:30.272Z,17.66
2019-01-04T00:29:30.186Z,17.65
2019-01-04T00:30:30.281Z,17.65
2019-01-04T00:31:30.294Z,17.64
2019-01-04T00:32:30.373Z,17.64
2019-01-04T00:33:30.517Z,17.63
2019-01-04T00:34:30.309Z,17.62
2019-01-04T00:35:30.222Z,17.62
2019-01-04T00:36:30.804Z,17.61
2019-01-04T00:37:30.221Z,17.61
2019-01-04T00:38:30.718Z,17.61
2019-01-04T00:39:30.802Z,17.61
2019-01-04T00:40:30.471Z,17.6
2019-01-04T00:41:30.582Z,17.59
2019-01-04T00:42:30.541Z,17.59
2019-01-04T00:43:30.687Z,17.57
2019-01-04T00:44:30.309Z,17.57
2019-01-04T00:45:31.062Z,17.58
2019-01-04T00:46:30.379Z,17.57
2019-01-04T00:47:30.228Z,17.57
2019-01-04T00:48:30.584Z,17.55
2019-01-04T00:49:30.711Z,17.55
2019-01-04T00:50:31.106Z,17.55
2019-01-04T00:51:30.378Z,17.55
2019-01-04T00:52:30.441Z,17.54
2019-01-04T00:53:30.271Z,17.53
2019-01-04T00:54:30.342Z,17.54
2019-01-04T00:55:30.104Z,17.53
2019-01-04T00:56:30.623Z,17.52
2019-01-04T00:57:30.188Z,17.53
2019-01-04T00:58:30.760Z,17.52
2019-01-04T00:59:30.209Z,17.51
2019-01-04T01:00:30.766Z,17.5
2019-01-04T01:01:31.080Z,17.5
2019-01-04T01:02:30.818Z,17.5
2019-01-04T01:03:30.806Z,17.49
2019-01-04T01:04:30.879Z,17.48
2019-01-04T01:05:30.720Z,17.49
2019-01-04T01:06:31.309Z,17.48
2019-01-04T01:07:30.619Z,17.48
2019-01-04T01:08:31.028Z,17.48
2019-01-04T01:09:30.737Z,17.48
2019-01-04T01:10:30.231Z,17.48
2019-01-04T01:11:30.666Z,17.47
2019-01-04T01:12:30.202Z,17.46
2019-01-04T01:13:30.434Z,17.46
2019-01-04T01:14:30.777Z,17.45
2019-01-04T01:15:30.486Z,17.45
2019-01-04T01:16:30.606Z,17.44
2019-01-04T01:17:30.397Z,17.44
2019-01-04T01:18:30.274Z,17.44
2019-01-04T01:19:30.362Z,17.43
2019-01-04T01:20:30.207Z,17.42
2019-01-04T01:21:30.608Z,17.43
2019-01-04T01:22:30.210Z,17.43
2019-01-04T01:23:30.131Z,17.42
2019-01-04T01:24:30.734Z,17.42
2019-01-04T01:25:30.120Z,17.42
2019-01-04T01:26:30.648Z,17.4
2019-01-04T01:27:30.355Z,17.41
2019-01-04T01:28:31.109Z,17.41
2019-01-04T01:29:30.731Z,17.41
2019-01-04T01:30:30.673Z,17.4
2019-01-04T01:31:30.488Z,17.39
2019-01-04T01:32:30.149Z,17.39
2019-01-04T01:33:30.152Z,17.38
2019-01-04T01:34:30.653Z,17.38
2019-01-04T01:35:30.123Z,17.38
2019-01-04T01:36:30.285Z,17.36
2019-01-04T01:37:30.429Z,17.36
2019-01-04T01:38:30.227Z,17.36
2019-01-04T01:39:30.527Z,17.37
2019-01-04T01:40:30.070Z,17.36
2019-01-04T01:41:30.409Z,17.36
2019-01-04T01:42:30.626Z,17.36
2019-01-04T01:43:30.906Z,17.35
2019-01-04T01:44:30.787Z,17.34
2019-01-04T01:45:30.116Z,17.34
2019-01-04T01:46:30.175Z,17.33
2019-01-04T01:47:30.147Z,17.33
2019-01-04T01:48:30.278Z,17.35
2019-01-04T01:49:30.340Z,17.32
2019-01-04T01:50:30.398Z,17.32
2019-01-04T01:51:30.260Z,17.31
2019-01-04T01:52:30.324Z,17.31
2019-01-04T01:53:30.129Z,17.31
2019-01-04T01:54:30.661Z,17.3
2019-01-04T01:55:30.271Z,17.3
2019-01-04T01:56:30.306Z,17.3
2019-01-04T01:57:30.761Z,17.29
2019-01-04T01:58:30.154Z,17.29
2019-01-04T01:59:30.741Z,17.29
2019-01-04T02:00:30.344Z,17.29
2019-01-04T02:01:30.303Z,17.29
2019-01-04T02:02:30.398Z,17.29
2019-01-04T02:03:30.202Z,17.29
2019-01-04T02:04:30.922Z,17.29
2019-01-04T02:05:30.037Z,17.26
2019-01-04T02:06:30.405Z,17.27
2019-01-04T02:07:30.285Z,17.27
2019-01-04T02:08:30.159Z,17.27
2019-01-04T02:09:30.341Z,17.26
2019-01-04T02:10:30.022Z,17.26
2019-01-04T02:11:30.224Z,17.26
2019-01-04T02:12:30.205Z,17.25
2019-01-04T02:13:30.270Z,17.25
2019-01-04T02:14:30.309Z,17.24
2019-01-04T02:15:30.266Z,17.23
2019-01-04T02:16:30.234Z,17.23
2019-01-04T02:17:30.491Z,17.23
2019-01-04T02:18:30.208Z,17.23
2019-01-04T02:19:30.393Z,17.23
2019-01-04T02:20:30.155Z,17.23
2019-01-04T02:21:30.445Z,17.23
2019-01-04T02:22:30.224Z,17.22
2019-01-04T02:23:31.011Z,17.22
2019-01-04T02:24:30.545Z,17.22
2019-01-04T02:25:30.328Z,17.22
2019-01-04T02:26:30.409Z,17.22
2019-01-04T02:27:30.244Z,17.21
2019-01-04T02:28:30.490Z,17.21
2019-01-04T02:29:30.901Z,17.2
2019-01-04T02:30:30.817Z,17.19
2019-01-04T02:31:30.532Z,17.19
2019-01-04T02:32:30.406Z,17.18
2019-01-04T02:33:30.534Z,17.19
2019-01-04T02:34:30.501Z,17.18
2019-01-04T02:35:30.246Z,17.18
2019-01-04T02:36:30.366Z,17.18
2019-01-04T02:37:31.171Z,17.17
2019-01-04T02:38:30.159Z,17.17
2019-01-04T02:39:30.383Z,17.17
2019-01-04T02:40:30.709Z,17.17
2019-01-04T02:41:30.424Z,17.17
2019-01-04T02:42:30.256Z,17.16
2019-01-04T02:43:30.782Z,17.16
2019-01-04T02:44:30.295Z,17.16
2019-01-04T02:45:31.161Z,17.15
2019-01-04T02:46:30.349Z,17.15
2019-01-04T02:47:30.753Z,17.15
2019-01-04T02:48:30.088Z,17.14
2019-01-04T02:49:30.449Z,17.15
2019-01-04T02:50:30.218Z,17.14
2019-01-04T02:51:30.139Z,17.13
2019-01-04T02:52:30.224Z,17.14
2019-01-04T02:53:30.443Z,17.14
2019-01-04T02:54:30.441Z,17.12
2019-01-04T02:55:30.370Z,17.13
2019-01-04T02:56:30.443Z,17.12
2019-01-04T02:57:31.166Z,17.12
2019-01-04T02:58:30.731Z,17.11
2019-01-04T02:59:30.271Z,17.11
2019-01-04T03:00:30.656Z,17.1
2019-01-04T03:01:30.073Z,17.1
2019-01-04T03:02:30.095Z,17.09
2019-01-04T03:03:30.285Z,17.1
2019-01-04T03:04:30.150Z,17.1
2019-01-04T03:05:30.153Z,17.09
2019-01-04T03:06:30.370Z,17.09
2019-01-04T03:07:30.557Z,17.09
2019-01-04T03:08:31.008Z,17.08
2019-01-04T03:09:30.306Z,17.08
2019-01-04T03:10:30.625Z,17.08
2019-01-04T03:11:30.368Z,17.08
2019-01-04T03:12:30.470Z,17.08
2019-01-04T03:13:30.683Z,17.07
2019-01-04T03:14:30.529Z,17.07
2019-01-04T03:15:30.113Z,17.05
2019-01-04T03:16:30.829Z,17.06
2019-01-04T03:17:30.205Z,17.06
2019-01-04T03:18:30.199Z,17.06
2019-01-04T03:19:30.368Z,17.05
2019-01-04T03:20:30.455Z,17.05
2019-01-04T03:21:30.357Z,17.04
2019-01-04T03:22:30.970Z,17.04
2019-01-04T03:23:30.598Z,17.04
2019-01-04T03:24:30.774Z,17.04
2019-01-04T03:25:30.347Z,17.04
2019-01-04T03:26:30.487Z,17.04
2019-01-04T03:27:30.315Z,17.03
2019-01-04T03:28:30.590Z,17.04
2019-01-04T03:29:30.307Z,17.03
2019-01-04T03:30:30.547Z,17.02
2019-01-04T03:31:30.378Z,17.03
2019-01-04T03:32:30.076Z,17.03
2019-01-04T03:33:30.662Z,17.02
2019-01-04T03:34:31.408Z,17.01
2019-01-04T03:35:30.215Z,17
2019-01-04T03:36:30.253Z,17
2019-01-04T03:37:30.212Z,17.01
2019-01-04T03:38:30.707Z,17
2019-01-04T03:39:30.313Z,17
2019-01-04T03:40:30.222Z,17.01
2019-01-04T03:41:30.207Z,17
2019-01-04T03:42:30.616Z,16.98
2019-01-04T03:43:30.125Z,16.98
2019-01-04T03:44:30.068Z,16.99
2019-01-04T03:45:30.094Z,16.98
2019-01-04T03:46:30.438Z,16.98
2019-01-04T03:47:30.102Z,16.98
2019-01-04T03:48:30.305Z,16.98
2019-01-04T03:49:30.322Z,16.98
2019-01-04T03:50:30.112Z,16.98
2019-01-04T03:51:30.318Z,16.98
2019-01-04T03:52:30.033Z,16.98
2019-01-04T03:53:30.352Z,16.97
2019-01-04T03:54:30.357Z,16.97
2019-01-04T03:55:30.181Z,16.97
2019-01-04T03:56:30.388Z,16.96
2019-01-04T03:57:30.097Z,16.95
2019-01-04T03:58:30.297Z,16.96
2019-01-04T03:59:30.392Z,16.95
2019-01-04T04:00:30.074Z,16.95
2019-01-04T04:01:30.649Z,16.95
2019-01-04T04:02:30.158Z,16.95
2019-01-04T04:03:30.399Z,16.95
2019-01-04T04:04:30.122Z,16.95
2019-01-04T04:05:30.067Z,16.93
2019-01-04T04:06:30.370Z,16.93
2019-01-04T04:07:30.379Z,16.93
2019-01-04T04:08:30.327Z,16.92
2019-01-04T04:09:30.303Z,16.93
2019-01-04T04:10:30.161Z,16.92
2019-01-04T04:11:31.121Z,16.92
2019-01-04T04:12:30.164Z,16.92
2019-01-04T04:13:30.209Z,16.92
2019-01-04T04:14:30.088Z,16.92
2019-01-04T04:15:30.083Z,16.92
2019-01-04T04:16:30.620Z,16.91
2019-01-04T04:17:30.095Z,16.91
2019-01-04T04:18:30.323Z,16.92
2019-01-04T04:19:29.925Z,16.91
2019-01-04T04:20:30.209Z,16.92
2019-01-04T04:21:30.419Z,16.91
2019-01-04T04:22:30.698Z,16.91
2019-01-04T04:23:30.602Z,16.9
2019-01-04T04:24:29.990Z,16.9
2019-01-04T04:25:30.647Z,16.89
2019-01-04T04:26:30.507Z,16.88
2019-01-04T04:27:30.321Z,16.88
2019-01-04T04:28:30.826Z,16.88
2019-01-04T04:29:30.233Z,16.87
2019-01-04T04:30:30.534Z,16.87
2019-01-04T04:31:31.134Z,16.87
2019-01-04T04:32:30.189Z,16.86
2019-01-04T04:33:30.174Z,16.87
2019-01-04T04:34:30.491Z,16.87
2019-01-04T04:35:30.370Z,16.87
2019-01-04T04:36:30.296Z,16.87
2019-01-04T04:37:30.408Z,16.87
2019-01-04T04:38:30.246Z,16.87
2019-01-04T04:39:29.965Z,16.87
2019-01-04T04:40:30.975Z,16.87
2019-01-04T04:41:30.216Z,16.88
2019-01-04T04:42:30.020Z,16.88
2019-01-04T04:43:30.477Z,16.89
2019-01-04T04:44:30.274Z,16.89
2019-01-04T04:45:30.076Z,16.89
2019-01-04T04:46:30.353Z,16.9
2019-01-04T04:47:30.256Z,16.89
2019-01-04T04:48:30.485Z,16.91
2019-01-04T04:49:30.248Z,16.92
2019-01-04T04:50:30.166Z,16.92
2019-01-04T04:51:30.166Z,16.92
2019-01-04T04:52:29.996Z,16.94
2019-01-04T04:53:30.714Z,16.95
2019-01-04T04:54:30.326Z,16.96
2019-01-04T04:55:30.284Z,16.98
2019-01-04T04:56:30.230Z,16.98
2019-01-04T04:57:30.025Z,17
2019-01-04T04:58:30.506Z,17.02
2019-01-04T04:59:30.406Z,17.04
2019-01-04T05:00:30.236Z,17.04
2019-01-04T05:01:30.317Z,17.06
2019-01-04T05:02:30.203Z,17.08
2019-01-04T05:03:30.181Z,17.1
2019-01-04T05:04:30.142Z,17.11
2019-01-04T05:05:30.030Z,17.13
2019-01-04T05:06:30.546Z,17.14
2019-01-04T05:07:30.241Z,17.17
2019-01-04T05:08:30.209Z,17.18
2019-01-04T05:09:30.357Z,17.2
2019-01-04T05:10:30.141Z,17.22
2019-01-04T05:11:30.103Z,17.23
2019-01-04T05:12:29.862Z,17.25
2019-01-04T05:13:30.142Z,17.27
2019-01-04T05:14:30.169Z,17.29
2019-01-04T05:15:30.444Z,17.3
2019-01-04T05:16:30.302Z,17.32
2019-01-04T05:17:31.422Z,17.35
2019-01-04T05:18:30.246Z,17.37
2019-01-04T05:19:29.972Z,17.4
2019-01-04T05:20:30.351Z,17.41
2019-01-04T05:21:30.277Z,17.42
2019-01-04T05:22:30.334Z,17.44
2019-01-04T05:23:30.121Z,17.47
2019-01-04T05:24:30.140Z,17.48
2019-01-04T05:25:30.148Z,17.5
2019-01-04T05:26:30.216Z,17.51
2019-01-04T05:27:30.401Z,17.54
2019-01-04T05:28:30.262Z,17.56
2019-01-04T05:29:30.235Z,17.58
2019-01-04T05:30:30.053Z,17.6
2019-01-04T05:31:30.291Z,17.62
2019-01-04T05:32:30.502Z,17.63
2019-01-04T05:33:30.086Z,17.64
2019-01-04T05:34:30.217Z,17.66
2019-01-04T05:35:30.480Z,17.67
2019-01-04T05:36:30.218Z,17.69
2019-01-04T05:37:29.969Z,17.7
2019-01-04T05:38:30.066Z,17.73
2019-01-04T05:39:30.273Z,17.73
2019-01-04T05:40:30.225Z,17.75
2019-01-04T05:41:30.262Z,17.75
2019-01-04T05:42:29.956Z,17.78
2019-01-04T05:43:30.125Z,17.79
2019-01-04T05:44:30.146Z,17.79
2019-01-04T05:45:30.154Z,17.81
2019-01-04T05:46:30.072Z,17.82
2019-01-04T05:47:30.263Z,17.84
2019-01-04T05:48:30.043Z,17.85
2019-01-04T05:49:30.173Z,17.86
2019-01-04T05:50:30.013Z,17.87
2019-01-04T05:51:30.285Z,17.89
2019-01-04T05:52:30.201Z,17.9
2019-01-04T05:53:30.258Z,17.91
2019-01-04T05:54:30.258Z,17.92
2019-01-04T05:55:30.104Z,17.93
2019-01-04T05:56:30.203Z,17.94
2019-01-04T05:57:29.939Z,17.95
2019-01-04T05:58:29.985Z,17.96
2019-01-04T05:59:31.098Z,17.97
2019-01-04T06:00:30.473Z,17.98
2019-01-04T06:01:30.370Z,18.01
2019-01-04T06:02:30.708Z,18.01
2019-01-04T06:03:30.085Z,18.02
2019-01-04T06:04:30.215Z,18.02
2019-01-04T06:05:30.130Z,18.03
2019-01-04T06:06:30.412Z,18.04
2019-01-04T06:07:30.701Z,18.06
2019-01-04T06:08:29.985Z,18.08
2019-01-04T06:09:30.152Z,18.08
2019-01-04T06:10:30.535Z,18.08
2019-01-04T06:11:30.492Z,18.09
2019-01-04T06:12:30.327Z,18.1
2019-01-04T06:13:30.085Z,18.12
2019-01-04T06:14:30.175Z,18.12
2019-01-04T06:15:30.281Z,18.12
2019-01-04T06:16:30.087Z,18.15
2019-01-04T06:17:30.377Z,18.15
2019-01-04T06:18:30.062Z,18.16
2019-01-04T06:19:30.392Z,18.17
2019-01-04T06:20:31.055Z,18.17
2019-01-04T06:21:30.081Z,18.18
2019-01-04T06:22:30.539Z,18.18
2019-01-04T06:23:30.916Z,18.19
2019-01-04T06:24:30.017Z,18.2
2019-01-04T06:25:30.583Z,18.23
2019-01-04T06:26:30.099Z,18.23
2019-01-04T06:27:30.996Z,18.23
2019-01-04T06:28:30.186Z,18.27
2019-01-04T06:29:30.891Z,18.27
2019-01-04T06:30:30.189Z,18.29
2019-01-04T06:31:30.353Z,18.3
2019-01-04T06:32:30.099Z,18.3
2019-01-04T06:33:30.391Z,18.33
2019-01-04T06:34:30.557Z,18.34
2019-01-04T06:35:30.517Z,18.35
2019-01-04T06:36:30.856Z,18.35
2019-01-04T06:37:30.296Z,18.38
2019-01-04T06:38:30.651Z,18.4
2019-01-04T06:39:30.450Z,18.42
2019-01-04T06:40:30.319Z,18.44
2019-01-04T06:41:30.452Z,18.46
2019-01-04T06:42:31.001Z,18.48
2019-01-04T06:43:30.350Z,18.55
2019-01-04T06:44:31.094Z,18.52
2019-01-04T06:45:30.819Z,18.51
2019-01-04T06:46:30.175Z,18.51
2019-01-04T06:47:30.068Z,18.52
2019-01-04T06:48:30.250Z,18.52
2019-01-04T06:49:30.269Z,18.52
2019-01-04T06:50:30.406Z,18.51
2019-01-04T06:51:30.108Z,18.52
2019-01-04T06:52:30.230Z,18.53
2019-01-04T06:53:30.429Z,18.53
2019-01-04T06:54:30.336Z,18.54
2019-01-04T06:55:29.950Z,18.54
2019-01-04T06:56:30.181Z,18.54
2019-01-04T06:57:30.004Z,18.53
2019-01-04T06:58:30.094Z,18.54
2019-01-04T06:59:30.573Z,18.53
2019-01-04T07:00:29.933Z,18.53
2019-01-04T07:01:30.377Z,18.53
2019-01-04T07:02:30.219Z,18.54
2019-01-04T07:03:30.278Z,18.53
2019-01-04T07:04:30.712Z,18.53
2019-01-04T07:05:29.897Z,18.52
2019-01-04T07:06:30.253Z,18.51
2019-01-04T07:07:30.174Z,18.51
2019-01-04T07:08:30.461Z,18.51
2019-01-04T07:09:30.528Z,18.5
2019-01-04T07:10:30.262Z,18.49
2019-01-04T07:11:30.052Z,18.48
2019-01-04T07:12:30.680Z,18.48
2019-01-04T07:13:30.096Z,18.48
2019-01-04T07:14:30.085Z,18.48
2019-01-04T07:15:29.979Z,18.46
2019-01-04T07:16:30.279Z,18.47
2019-01-04T07:17:30.423Z,18.46
2019-01-04T07:18:30.021Z,18.46
2019-01-04T07:19:30.215Z,18.46
2019-01-04T07:20:29.897Z,18.45
2019-01-04T07:21:30.058Z,18.43
2019-01-04T07:22:30.324Z,18.43
2019-01-04T07:23:30.267Z,18.42
2019-01-04T07:24:30.008Z,18.41
2019-01-04T07:25:30.199Z,18.41
2019-01-04T07:26:30.109Z,18.41
2019-01-04T07:27:30.439Z,18.4
2019-01-04T07:28:29.973Z,18.39
2019-01-04T07:29:29.997Z,18.38
2019-01-04T07:30:30.698Z,18.37
2019-01-04T07:31:30.312Z,18.36
2019-01-04T07:32:30.347Z,18.35
2019-01-04T07:33:30.412Z,18.35
2019-01-04T07:34:30.070Z,18.35
2019-01-04T07:35:30.966Z,18.33
2019-01-04T07:36:30.284Z,18.32
2019-01-04T07:37:30.624Z,18.32
2019-01-04T07:38:30.861Z,18.3
2019-01-04T07:39:30.862Z,18.29
2019-01-04T07:40:30.128Z,18.29
2019-01-04T07:41:30.956Z,18.29
2019-01-04T07:42:30.357Z,18.28
2019-01-04T07:43:30.144Z,18.27
2019-01-04T07:44:30.470Z,18.26
2019-01-04T07:45:30.142Z,18.25
2019-01-04T07:46:30.238Z,18.24
2019-01-04T07:47:30.387Z,18.23
2019-01-04T07:48:30.422Z,18.23
2019-01-04T07:49:30.215Z,18.23
2019-01-04T07:50:30.976Z,18.22
2019-01-04T07:51:30.195Z,18.21
2019-01-04T07:52:30.428Z,18.21
2019-01-04T07:53:30.140Z,18.2
2019-01-04T07:54:31.565Z,18.18
2019-01-04T07:55:30.231Z,18.18
2019-01-04T07:56:30.195Z,18.17
2019-01-04T07:57:29.976Z,18.17
2019-01-04T07:58:30.130Z,18.17
2019-01-04T07:59:30.230Z,18.16
2019-01-04T08:00:30.393Z,18.15
2019-01-04T08:01:30.106Z,18.14
2019-01-04T08:02:30.460Z,18.13
2019-01-04T08:03:30.538Z,18.12
2019-01-04T08:04:30.228Z,18.11
2019-01-04T08:05:30.311Z,18.1
2019-01-04T08:06:30.130Z,18.1
2019-01-04T08:07:30.317Z,18.09
2019-01-04T08:08:30.143Z,18.08
2019-01-04T08:09:30.537Z,18.07
2019-01-04T08:10:30.011Z,18.07
2019-01-04T08:11:30.424Z,18.06
2019-01-04T08:12:30.093Z,18.05
2019-01-04T08:13:30.287Z,18.04
2019-01-04T08:14:30.361Z,18.04
2019-01-04T08:15:30.296Z,18.04
2019-01-04T08:16:30.452Z,18.03
2019-01-04T08:17:30.281Z,18.03
2019-01-04T08:18:30.046Z,18.02
2019-01-04T08:19:30.477Z,18.02
2019-01-04T08:20:29.926Z,18
2019-01-04T08:21:30.160Z,17.99
2019-01-04T08:22:30.174Z,18
2019-01-04T08:23:30.125Z,17.99
2019-01-04T08:24:30.271Z,17.99
2019-01-04T08:25:30.116Z,17.98
2019-01-04T08:26:30.298Z,17.98
2019-01-04T08:27:30.141Z,17.98
2019-01-04T08:28:29.881Z,17.98
2019-01-04T08:29:30.577Z,17.97
2019-01-04T08:30:30.293Z,17.97
2019-01-04T08:31:30.212Z,17.96
2019-01-04T08:32:31.008Z,17.95
2019-01-04T08:33:29.909Z,17.95
2019-01-04T08:34:30.889Z,17.94
2019-01-04T08:35:30.775Z,17.94
2019-01-04T08:36:29.986Z,17.94
2019-01-04T08:37:30.197Z,17.94
2019-01-04T08:38:29.785Z,17.93
2019-01-04T08:39:30.029Z,17.92
2019-01-04T08:40:30.222Z,17.92
2019-01-04T08:41:30.278Z,17.92
2019-01-04T08:42:30.398Z,17.91
2019-01-04T08:43:29.934Z,17.9
2019-01-04T08:44:30.105Z,17.91
2019-01-04T08:45:31.198Z,17.91
2019-01-04T08:46:30.330Z,17.91
2019-01-04T08:47:30.537Z,17.89
2019-01-04T08:48:30.333Z,17.89
2019-01-04T08:49:30.752Z,17.9
2019-01-04T08:50:30.568Z,17.89
2019-01-04T08:51:30.835Z,17.89
2019-01-04T08:52:30.488Z,17.9
2019-01-04T08:53:30.191Z,17.89
2019-01-04T08:54:30.228Z,17.89
2019-01-04T08:55:30.156Z,17.88
2019-01-04T08:56:29.990Z,17.88
2019-01-04T08:57:29.972Z,17.88
2019-01-04T08:58:30.222Z,17.89
2019-01-04T08:59:30.150Z,17.88
2019-01-04T09:00:30.440Z,17.87
2019-01-04T09:01:30.147Z,17.86
2019-01-04T09:02:30.122Z,17.87
2019-01-04T09:03:30.020Z,17.87
2019-01-04T09:04:30.000Z,17.87
2019-01-04T09:05:30.033Z,17.86
2019-01-04T09:06:30.211Z,17.87
2019-01-04T09:07:30.316Z,17.87
2019-01-04T09:08:30.159Z,17.87
2019-01-04T09:09:29.916Z,17.86
2019-01-04T09:10:30.046Z,17.86
2019-01-04T09:11:30.324Z,17.87
2019-01-04T09:12:30.099Z,17.86
2019-01-04T09:13:30.067Z,17.86
2019-01-04T09:14:30.169Z,17.86
2019-01-04T09:15:29.958Z,17.86
2019-01-04T09:16:30.090Z,17.86
2019-01-04T09:17:30.224Z,17.86
2019-01-04T09:18:29.961Z,17.86
2019-01-04T09:19:30.455Z,17.86
2019-01-04T09:20:30.018Z,17.86
2019-01-04T09:21:30.389Z,17.87
2019-01-04T09:22:30.535Z,17.87
2019-01-04T09:23:30.675Z,17.87
2019-01-04T09:24:30.390Z,17.87
2019-01-04T09:25:30.124Z,17.88
2019-01-04T09:26:30.135Z,17.88
2019-01-04T09:27:30.156Z,17.88
2019-01-04T09:28:30.097Z,17.88
2019-01-04T09:29:30.234Z,17.89
2019-01-04T09:30:30.604Z,17.89
2019-01-04T09:31:30.325Z,17.88
2019-01-04T09:32:31.267Z,17.89
2019-01-04T09:33:30.350Z,17.88
2019-01-04T09:34:30.092Z,17.89
2019-01-04T09:35:30.007Z,17.89
2019-01-04T09:36:30.119Z,17.89
2019-01-04T09:37:30.001Z,17.9
2019-01-04T09:38:30.318Z,17.89
2019-01-04T09:39:30.429Z,17.91
2019-01-04T09:40:29.999Z,17.9
2019-01-04T09:41:30.433Z,17.91
2019-01-04T09:42:30.134Z,17.9
2019-01-04T09:43:29.954Z,17.9
2019-01-04T09:44:30.125Z,17.91
2019-01-04T09:45:30.360Z,17.91
2019-01-04T09:46:31.391Z,17.9
2019-01-04T09:47:30.512Z,17.9
2019-01-04T09:48:30.358Z,17.89
2019-01-04T09:49:30.253Z,17.9
2019-01-04T09:50:30.281Z,17.9
2019-01-04T09:51:30.375Z,17.89
2019-01-04T09:52:30.214Z,17.89
2019-01-04T09:53:29.984Z,17.89
2019-01-04T09:54:30.570Z,17.88
2019-01-04T09:55:30.409Z,17.89
2019-01-04T09:56:30.776Z,17.89
2019-01-04T09:57:30.543Z,17.89
2019-01-04T09:58:29.965Z,17.88
2019-01-04T09:59:30.007Z,17.89
2019-01-04T10:00:30.459Z,17.89
2019-01-04T10:01:30.416Z,17.89
2019-01-04T10:02:30.390Z,17.88
2019-01-04T10:03:30.007Z,17.89
2019-01-04T10:04:30.394Z,17.88
2019-01-04T10:05:31.028Z,17.88
2019-01-04T10:06:30.302Z,17.88
2019-01-04T10:07:30.601Z,17.88
2019-01-04T10:08:30.109Z,17.87
2019-01-04T10:09:29.960Z,17.87
2019-01-04T10:10:30.454Z,17.87
2019-01-04T10:11:30.224Z,17.86
2019-01-04T10:12:30.262Z,17.87
2019-01-04T10:13:30.494Z,17.88
2019-01-04T10:14:30.932Z,17.87
2019-01-04T10:15:30.182Z,17.87
2019-01-04T10:16:30.367Z,17.86
2019-01-04T10:17:30.283Z,17.86
2019-01-04T10:18:29.884Z,17.86
2019-01-04T10:19:30.269Z,17.86
2019-01-04T10:20:30.458Z,17.86
2019-01-04T10:21:30.908Z,17.86
2019-01-04T10:22:29.943Z,17.86
2019-01-04T10:23:30.124Z,17.85
2019-01-04T10:24:30.151Z,17.85
2019-01-04T10:25:30.209Z,17.85
2019-01-04T10:26:29.840Z,17.84
2019-01-04T10:27:30.318Z,17.84
2019-01-04T10:28:30.285Z,17.84
2019-01-04T10:29:30.228Z,17.84
2019-01-04T10:30:30.368Z,17.84
2019-01-04T10:31:30.397Z,17.84
2019-01-04T10:32:30.001Z,17.83
2019-01-04T10:33:30.392Z,17.83
2019-01-04T10:34:30.871Z,17.82
2019-01-04T10:35:30.181Z,17.82
2019-01-04T10:36:30.030Z,17.82
2019-01-04T10:37:30.357Z,17.81
2019-01-04T10:38:30.108Z,17.82
2019-01-04T10:39:30.133Z,17.81
2019-01-04T10:40:30.464Z,17.8
2019-01-04T10:41:30.025Z,17.8
2019-01-04T10:42:29.973Z,17.8
2019-01-04T10:43:30.307Z,17.81
2019-01-04T10:44:30.237Z,17.8
2019-01-04T10:45:29.971Z,17.79
2019-01-04T10:46:30.166Z,17.8
2019-01-04T10:47:30.570Z,17.79
2019-01-04T10:48:30.232Z,17.8
2019-01-04T10:49:29.917Z,17.8
2019-01-04T10:50:30.071Z,17.8
2019-01-04T10:51:29.935Z,17.79
2019-01-04T10:52:30.081Z,17.79
2019-01-04T10:53:30.423Z,17.79
2019-01-04T10:54:30.100Z,17.79
2019-01-04T10:55:30.077Z,17.79
2019-01-04T10:56:29.818Z,17.78
2019-01-04T10:57:30.178Z,17.77
2019-01-04T10:58:30.139Z,17.78
2019-01-04T10:59:29.880Z,17.78
2019-01-04T11:00:30.042Z,17.77
2019-01-04T11:01:30.182Z,17.77
2019-01-04T11:02:30.046Z,17.77
2019-01-04T11:03:30.275Z,17.76
2019-01-04T11:04:29.928Z,17.76
2019-01-04T11:05:30.021Z,17.76
2019-01-04T11:06:30.113Z,17.75
2019-01-04T11:07:30.393Z,17.75
2019-01-04T11:08:30.029Z,17.76
2019-01-04T11:09:29.943Z,17.75
2019-01-04T11:10:30.007Z,17.75
2019-01-04T11:11:30.020Z,17.75
2019-01-04T11:12:30.339Z,17.75
2019-01-04T11:13:30.005Z,17.74
2019-01-04T11:14:29.927Z,17.75
2019-01-04T11:15:29.984Z,17.74
2019-01-04T11:16:30.599Z,17.73
2019-01-04T11:17:30.410Z,17.73
2019-01-04T11:18:30.231Z,17.74
2019-01-04T11:19:30.197Z,17.74
2019-01-04T11:20:30.212Z,17.74
2019-01-04T11:21:30.035Z,17.73
2019-01-04T11:22:30.450Z,17.74
2019-01-04T11:23:30.076Z,17.74
2019-01-04T11:24:30.651Z,17.73
2019-01-04T11:25:29.983Z,17.73
2019-01-04T11:26:30.483Z,17.73
2019-01-04T11:27:30.067Z,17.73
2019-01-04T11:28:30.341Z,17.73
2019-01-04T11:29:30.391Z,17.73
2019-01-04T11:30:29.950Z,17.73
2019-01-04T11:31:30.460Z,17.73
2019-01-04T11:32:29.923Z,17.73
2019-01-04T11:33:30.146Z,17.73
2019-01-04T11:34:30.480Z,17.73
2019-01-04T11:35:30.197Z,17.73
2019-01-04T11:36:30.102Z,17.73
2019-01-04T11:37:30.114Z,17.73
2019-01-04T11:38:30.127Z,17.73
2019-01-04T11:39:30.079Z,17.73
2019-01-04T11:40:30.577Z,17.73
2019-01-04T11:41:30.773Z,17.72
2019-01-04T11:42:30.465Z,17.72
2019-01-04T11:43:29.887Z,17.73
2019-01-04T11:44:30.149Z,17.73
2019-01-04T11:45:29.909Z,17.72
2019-01-04T11:46:30.153Z,17.73
2019-01-04T11:47:30.281Z,17.73
2019-01-04T11:48:29.891Z,17.73
2019-01-04T11:49:31.812Z,17.73
2019-01-04T11:50:30.214Z,17.72
2019-01-04T11:51:30.833Z,17.73
2019-01-04T11:52:31.603Z,17.73
2019-01-04T11:53:30.112Z,17.73
2019-01-04T11:54:30.123Z,17.73
2019-01-04T11:55:30.760Z,17.73
2019-01-04T11:56:29.981Z,17.72
2019-01-04T11:57:30.157Z,17.72
2019-01-04T11:58:29.913Z,17.72
2019-01-04T11:59:30.035Z,17.72
2019-01-04T12:00:30.440Z,17.72
2019-01-04T12:01:30.438Z,17.72
2019-01-04T12:02:30.059Z,17.71
2019-01-04T12:03:29.890Z,17.71
2019-01-04T12:04:29.994Z,17.71
2019-01-04T12:05:30.213Z,17.71
2019-01-04T12:06:30.297Z,17.71
2019-01-04T12:07:30.227Z,17.71
2019-01-04T12:08:30.356Z,17.71
2019-01-04T12:09:30.236Z,17.72
2019-01-04T12:10:30.689Z,17.71
2019-01-04T12:11:29.777Z,17.71
2019-01-04T12:12:30.181Z,17.71
2019-01-04T12:13:30.270Z,17.71
2019-01-04T12:14:29.810Z,17.71
2019-01-04T12:15:30.265Z,17.71
2019-01-04T12:16:29.897Z,17.71
2019-01-04T12:17:30.238Z,17.71
2019-01-04T12:18:30.983Z,17.71
2019-01-04T12:19:30.441Z,17.71
2019-01-04T12:20:30.225Z,17.72
2019-01-04T12:21:30.459Z,17.71
2019-01-04T12:22:30.292Z,17.71
2019-01-04T12:23:30.778Z,17.71
2019-01-04T12:24:29.977Z,17.71
2019-01-04T12:25:30.385Z,17.71
2019-01-04T12:26:29.877Z,17.71
2019-01-04T12:27:30.008Z,17.71
2019-01-04T12:28:29.951Z,17.71
2019-01-04T12:29:29.982Z,17.7
2019-01-04T12:30:30.082Z,17.7
2019-01-04T12:31:30.140Z,17.71
2019-01-04T12:32:29.892Z,17.7
2019-01-04T12:33:30.225Z,17.69
2019-01-04T12:34:30.025Z,17.7
2019-01-04T12:35:29.974Z,17.71
2019-01-04T12:36:30.375Z,17.7
2019-01-04T12:37:30.254Z,17.7
2019-01-04T12:38:30.052Z,17.7
2019-01-04T12:39:29.822Z,17.7
2019-01-04T12:40:29.864Z,17.7
2019-01-04T12:41:30.407Z,17.7
2019-01-04T12:42:29.911Z,17.71
2019-01-04T12:43:30.033Z,17.69
2019-01-04T12:44:29.815Z,17.7
2019-01-04T12:45:30.394Z,17.7
2019-01-04T12:46:30.332Z,17.7
2019-01-04T12:47:30.756Z,17.7
2019-01-04T12:48:30.049Z,17.7
2019-01-04T12:49:30.514Z,17.7
2019-01-04T12:50:29.992Z,17.71
2019-01-04T12:51:30.287Z,17.69
2019-01-04T12:52:29.973Z,17.7
2019-01-04T12:53:30.348Z,17.69
2019-01-04T12:54:30.273Z,17.69
2019-01-04T12:55:30.214Z,17.68